sim
Sign-in with your pilot id or email,
or register
Callsign
Passwort

Schedule Details

Flight Number: DLH1622
Departure: Munich Airport (EDDM) at 10:30
Arrival: Krakow John Paul II International Airport (EPKK) at 11:50
Route: Lufthansa Passenger Schedule. Enter filed route here before submitting Pirep.

Weather Information
Getting current METAR information for EDDM 260920Z 26022G32KT 9999 -DZRA SCT017 BKN025 08/04 Q1000 NOSIG
Getting current METAR information for EPKK 260900Z 19006KT 140V220 9999 -SHRA FEW023CB BKN053 15/13 Q0991

Schedule Frequency

Route Map